TKPK Airport Information

Runway Information
Runway 07 Length 7602 ft width 148 ft
Elevation 168 ft Threshold 200 ft Heading 57
Runway 25 Length 7602 ft Width 148 ft
Elevation 161 ft Threshold 0 ft Heading 237
Airport Frequencies
Type APP Name APP Frequency 119.6 MHZ
Type GND Name GND Frequency 121.9 MHZ
Type TWR Name TWR Frequency 118.3 MHZ
Airport Navaids
Type NDB-DME Name Bradshaw Frequency 325 KHZ
Airport Weather Information & NOTAM
ADDS - METARS form results

(0358 UTC 18 November 2018)
Data provider http://aviationweather.gov/metar/data/
 
Forecast for: TKPK (GOLDEN ROCKS/NEV, KN)
Text: TKPK 172320Z 1800/1824 07010KT P6SM SCT020 AMD NOT SKED 1802/1811
Forecast period: 0000 UTC 18 November 2018 to 0000 UTC 19 November 2018
Forecast type: FROM: standard forecast or significant change
Winds: from the ENE (70 degrees) at 12 MPH (10 knots; 5.1 m/s)
Visibility: 6 or more miles 10+ km)
Ceiling: at least 12,000 feet AGL
Clouds: scattered clouds at 2000 feet AGL
Weather: no significant weather forecast for this period